Scott Bar, California
Current Conditions -  °F | °C
As of 10:53 AM on Tuesday 21 Oct 2014 (Local Time) from KSIY Reporting Station
Scattered Clouds Scattered Clouds  
Wind Chill: 51°   Ceiling: Unl
Heat Index: 51°   Visibility: 10mi
Dew Point: 42°   Wind: 5mph
Humidity: 71%   Direction: 230°SW
Pressure: 30.14"   Gusts: NA
Location:  41.74°N, 123°W
Report Text: KSIY 211753Z AUTO 23004KT 10SM SCT050 11/06 A3014 RMK AO2 SLP215 T01060056 10106 20056 50006
Loading
Personal Weather Stations






























Interactive Weather Map
Tropical Storm Tracking
New forecast layout! Learn more

10-Day Weather Forecast

Advertisements
Track Severe Weather on mobile